Time;durP1;ratioP1;P1;durP2;ratioP2;P2;SDS_P1;SDS_P2;PMS_P1;PMS_P2;Temp;Humidity;BMP_temperature;BMP_pressure;BME280_temperature;BME280_humidity;BME280_pressure;Samples;Min_cycle;Max_cycle;Signal;HPM_P1;HPM_P2
2023/06/19 00:00:55;;;;;;;0.70;0.70;;;;;;;22.83;100.00;99980.84;5071540;28;20214;-73
2023/06/19 00:03:22;;;;;;;0.60;0.60;;;;;;;22.88;100.00;99978.03;5071602;28;20237;-74
2023/06/19 00:05:49;;;;;;;0.95;0.95;;;;;;;22.94;100.00;99981.31;5037370;28;20219;-75
2023/06/19 00:08:17;;;;;;;0.73;0.73;;;;;;;23.03;100.00;99965.13;5036635;28;20187;-74
2023/06/19 00:10:44;;;;;;;1.08;1.08;;;;;;;22.99;100.00;99975.88;5072017;28;20203;-74
2023/06/19 00:13:10;;;;;;;0.70;0.70;;;;;;;22.94;100.00;99980.44;5070503;28;20711;-73
2023/06/19 00:15:37;;;;;;;1.60;1.50;;;;;;;22.89;100.00;99978.00;5071975;28;20226;-75
2023/06/19 00:18:06;;;;;;;0.70;0.70;;;;;;;22.80;100.00;99961.59;5071892;28;20256;-76
2023/06/19 00:20:35;;;;;;;0.88;0.88;;;;;;;22.80;100.00;99975.69;5071697;28;20206;-74
2023/06/19 00:23:01;;;;;;;0.75;0.75;;;;;;;22.85;100.00;99962.28;5071200;28;20219;-73
2023/06/19 00:25:30;;;;;;;0.60;0.60;;;;;;;22.89;100.00;99962.13;5071790;28;20205;-73
2023/06/19 00:27:56;;;;;;;0.60;0.60;;;;;;;22.85;100.00;99963.16;5071677;28;20203;-75
2023/06/19 00:30:23;;;;;;;0.55;0.55;;;;;;;22.76;100.00;99968.78;5071241;28;20235;-73
2023/06/19 00:32:52;;;;;;;0.70;0.70;;;;;;;22.69;100.00;99956.69;5063349;28;20206;-73
2023/06/19 00:35:20;;;;;;;0.70;0.70;;;;;;;22.78;100.00;99971.38;5071310;28;20202;-74
2023/06/19 00:37:47;;;;;;;0.60;0.60;;;;;;;22.71;100.00;99965.44;5071294;28;20256;-74
2023/06/19 00:40:22;;;;;;;0.63;0.63;;;;;;;22.64;100.00;99964.78;5070898;28;20190;-74
2023/06/19 00:42:50;;;;;;;0.88;0.88;;;;;;;22.75;100.00;99966.19;5037720;28;20222;-74
2023/06/19 00:45:17;;;;;;;0.80;0.80;;;;;;;22.78;100.00;99972.25;5062235;28;20644;-73
2023/06/19 00:47:44;;;;;;;1.00;1.00;;;;;;;22.66;100.00;99962.06;5070598;28;20203;-73
2023/06/19 00:50:12;;;;;;;0.70;0.70;;;;;;;22.71;100.00;99973.38;5070328;28;20572;-74
2023/06/19 00:52:38;;;;;;;0.80;0.80;;;;;;;22.62;100.00;99971.88;5071940;28;20630;-74
2023/06/19 00:55:09;;;;;;;0.70;0.70;;;;;;;22.41;100.00;99942.72;5071217;28;20620;-75
2023/06/19 00:57:36;;;;;;;0.70;0.70;;;;;;;22.52;100.00;99973.13;5035598;28;20280;-74
2023/06/19 01:00:07;;;;;;;0.88;0.88;;;;;;;22.68;100.00;99973.50;5070907;28;20229;-75
2023/06/19 01:02:34;;;;;;;0.75;0.75;;;;;;;22.61;100.00;99974.59;5063683;28;20301;-73
2023/06/19 01:05:01;;;;;;;1.35;1.33;;;;;;;22.60;100.00;99967.59;5071118;28;20213;-74
2023/06/19 01:07:33;;;;;;;0.80;0.80;;;;;;;22.82;100.00;99968.56;5071006;28;20199;-73
2023/06/19 01:10:06;;;;;;;0.63;0.63;;;;;;;22.75;100.00;99961.78;5060793;28;20218;-73
2023/06/19 01:12:38;;;;;;;0.70;0.70;;;;;;;22.73;100.00;99958.31;5070974;28;20207;-73
2023/06/19 01:15:09;;;;;;;0.80;0.80;;;;;;;22.66;100.00;99952.34;5052575;28;20195;-75
2023/06/19 01:17:36;;;;;;;0.60;0.60;;;;;;;22.48;100.00;99952.16;5059893;28;20202;-73
2023/06/19 01:20:10;;;;;;;0.60;0.60;;;;;;;22.41;100.00;99954.16;5071173;28;20199;-75
2023/06/19 01:22:38;;;;;;;0.70;0.70;;;;;;;22.34;100.00;99943.84;5038178;28;20222;-73
2023/06/19 01:25:06;;;;;;;0.73;0.73;;;;;;;22.29;100.00;99951.97;5073980;28;20210;-73
2023/06/19 01:27:34;;;;;;;0.80;0.80;;;;;;;22.43;100.00;99959.41;5074729;28;20187;-74
2023/06/19 01:30:03;;;;;;;0.70;0.70;;;;;;;22.22;100.00;99935.44;5040054;28;20222;-74
2023/06/19 01:32:36;;;;;;;0.70;0.70;;;;;;;22.39;100.00;99963.06;5075295;28;20199;-73
2023/06/19 01:35:03;;;;;;;0.88;0.88;;;;;;;22.40;100.00;99949.78;5057144;28;20220;-74
2023/06/19 01:37:33;;;;;;;0.68;0.68;;;;;;;22.59;100.00;99966.72;5039538;28;20289;-74
2023/06/19 01:40:06;;;;;;;0.80;0.80;;;;;;;22.73;100.00;99975.03;5074789;28;20677;-74
2023/06/19 01:42:35;;;;;;;0.70;0.70;;;;;;;21.46;100.00;99794.63;5074335;28;20202;-75
2023/06/19 01:45:03;;;;;;;0.60;0.60;;;;;;;22.24;100.00;99946.81;5074681;28;20210;-73
2023/06/19 01:47:30;;;;;;;1.00;1.00;;;;;;;22.36;100.00;99968.47;5074526;28;20203;-74
2023/06/19 01:49:56;;;;;;;1.02;1.02;;;;;;;22.45;100.00;99965.47;5074676;28;20214;-74
2023/06/19 01:52:24;;;;;;;0.70;0.70;;;;;;;22.64;100.00;99971.84;5055491;28;20665;-74
2023/06/19 01:54:51;;;;;;;0.70;0.70;;;;;;;22.71;100.00;99974.25;5058729;28;20633;-74
2023/06/19 01:57:20;;;;;;;0.60;0.60;;;;;;;22.76;100.00;99971.41;5074657;28;20288;-74
2023/06/19 01:59:47;;;;;;;0.70;0.70;;;;;;;22.84;100.00;99979.94;5074451;28;20268;-74
2023/06/19 02:02:13;;;;;;;0.70;0.70;;;;;;;22.69;100.00;99977.84;5074308;28;20209;-74
2023/06/19 02:04:40;;;;;;;0.70;0.70;;;;;;;22.67;100.00;99979.69;5074452;28;20223;-74
2023/06/19 02:07:07;;;;;;;0.60;0.60;;;;;;;22.63;100.00;99980.69;5074147;28;20195;-75
2023/06/19 02:09:34;;;;;;;0.60;0.60;;;;;;;22.51;100.00;99965.28;5055667;28;20295;-73
2023/06/19 02:12:01;;;;;;;0.63;0.63;;;;;;;22.43;100.00;99962.03;5074281;28;20202;-74
2023/06/19 02:14:29;;;;;;;0.60;0.60;;;;;;;22.54;100.00;99973.09;5073986;28;20215;-73
2023/06/19 02:16:56;;;;;;;0.70;0.70;;;;;;;22.42;100.00;99989.38;5038724;28;20206;-74
2023/06/19 02:19:22;;;;;;;0.70;0.70;;;;;;;22.38;100.00;99983.31;5073917;28;20207;-73
2023/06/19 02:21:49;;;;;;;0.60;0.60;;;;;;;22.38;100.00;99983.31;5055368;28;20256;-73
2023/06/19 02:24:16;;;;;;;0.60;0.60;;;;;;;22.41;100.00;99983.22;5071861;28;20223;-73
2023/06/19 02:26:43;;;;;;;0.60;0.60;;;;;;;22.30;100.00;99971.28;5055201;28;20333;-73
2023/06/19 02:29:10;;;;;;;0.75;0.75;;;;;;;22.26;100.00;99986.38;5073886;28;20190;-73
2023/06/19 02:31:39;;;;;;;0.70;0.70;;;;;;;22.30;100.00;99984.50;5072329;28;20296;-74
2023/06/19 02:34:07;;;;;;;0.60;0.60;;;;;;;22.22;100.00;99982.97;5055006;28;20234;-73
2023/06/19 02:36:35;;;;;;;0.80;0.80;;;;;;;22.36;100.00;99987.81;5072560;28;20252;-73
2023/06/19 02:39:02;;;;;;;0.70;0.70;;;;;;;22.16;100.00;99988.47;5072537;28;20199;-74
2023/06/19 02:41:28;;;;;;;0.60;0.60;;;;;;;22.15;100.00;99986.75;5073096;28;20661;-74
2023/06/19 02:43:55;;;;;;;0.93;0.93;;;;;;;22.13;100.00;99988.59;5037939;28;20736;-73
2023/06/19 02:46:22;;;;;;;0.63;0.63;;;;;;;22.15;100.00;99970.06;5034433;28;20192;-74
2023/06/19 02:48:50;;;;;;;0.60;0.60;;;;;;;22.21;100.00;99973.34;5052234;28;20199;-74
2023/06/19 02:51:17;;;;;;;0.70;0.70;;;;;;;22.29;100.00;99993.34;5035416;28;21304;-74
2023/06/19 02:53:44;;;;;;;0.70;0.70;;;;;;;22.37;100.00;99992.16;5053869;28;20199;-74
2023/06/19 02:56:12;;;;;;;0.60;0.60;;;;;;;22.47;100.00;99987.44;5073695;28;20278;-76
2023/06/19 02:58:39;;;;;;;0.80;0.80;;;;;;;22.54;100.00;99988.94;5073390;28;20203;-74
2023/06/19 03:01:08;;;;;;;0.70;0.70;;;;;;;22.61;100.00;99993.09;5073267;28;20622;-81
2023/06/19 03:03:38;;;;;;;0.60;0.60;;;;;;;22.76;100.00;99992.56;5038980;28;20232;-76
2023/06/19 03:06:07;;;;;;;0.70;0.70;;;;;;;22.86;100.00;99993.97;5072437;28;20689;-77
2023/06/19 03:08:34;;;;;;;0.60;0.60;;;;;;;22.79;100.00;100000.41;5073028;28;20213;-74
2023/06/19 03:11:04;;;;;;;0.60;0.60;;;;;;;22.86;100.00;99993.13;5073762;28;20210;-75
2023/06/19 03:13:30;;;;;;;0.70;0.70;;;;;;;22.95;100.00;100005.97;5042218;28;20210;-75
2023/06/19 03:15:57;;;;;;;0.60;0.60;;;;;;;22.61;100.00;99990.47;5062285;28;20622;-75
2023/06/19 03:18:24;;;;;;;0.60;0.60;;;;;;;23.02;100.00;99987.19;5072743;28;20202;-75
2023/06/19 03:20:51;;;;;;;0.60;0.60;;;;;;;23.01;100.00;99996.03;5037539;28;20203;-77
2023/06/19 03:23:19;;;;;;;0.80;0.80;;;;;;;23.21;100.00;99997.94;5072578;28;20219;-75
2023/06/19 03:25:46;;;;;;;0.70;0.70;;;;;;;23.05;100.00;99989.72;5072080;28;20692;-75
2023/06/19 03:28:12;;;;;;;0.73;0.73;;;;;;;23.28;100.00;100003.88;5072698;28;20206;-74
2023/06/19 03:30:39;;;;;;;0.77;0.77;;;;;;;23.23;100.00;100010.19;5072531;28;20219;-76
2023/06/19 03:33:06;;;;;;;0.70;0.70;;;;;;;23.35;100.00;100021.25;5072506;28;20203;-75
2023/06/19 03:35:33;;;;;;;0.60;0.60;;;;;;;23.45;100.00;100012.06;5069425;28;20207;-76
2023/06/19 03:37:59;;;;;;;0.90;0.90;;;;;;;23.52;100.00;100016.19;5072832;28;20191;-79
2023/06/19 03:40:28;;;;;;;0.60;0.60;;;;;;;23.37;100.00;100025.53;5053433;28;20210;-74
2023/06/19 03:42:55;;;;;;;0.60;0.60;;;;;;;23.41;100.00;100015.69;5061134;28;20287;-74
2023/06/19 03:45:22;;;;;;;0.70;0.70;;;;;;;23.46;100.00;100014.66;5072331;28;20199;-75
2023/06/19 03:47:49;;;;;;;0.68;0.68;;;;;;;23.44;100.00;100031.50;5072218;28;20210;-75
2023/06/19 03:50:16;;;;;;;0.50;0.50;;;;;;;23.46;100.00;100019.94;5069858;28;20207;-76
2023/06/19 03:52:42;;;;;;;0.70;0.70;;;;;;;23.59;100.00;100028.25;5070601;28;20199;-75
2023/06/19 03:55:09;;;;;;;0.63;0.63;;;;;;;23.59;100.00;100030.91;5071917;28;20264;-75
2023/06/19 03:57:38;;;;;;;0.60;0.60;;;;;;;23.70;100.00;100020.75;5072105;28;20195;-75
2023/06/19 04:00:07;;;;;;;0.60;0.60;;;;;;;23.62;100.00;100030.78;5072135;28;20248;-76
2023/06/19 04:02:34;;;;;;;0.65;0.65;;;;;;;23.72;100.00;100026.88;5072027;28;20203;-76
2023/06/19 04:05:01;;;;;;;0.70;0.70;;;;;;;23.96;100.00;100049.72;5072331;28;20222;-75
2023/06/19 04:07:28;;;;;;;0.80;0.80;;;;;;;24.12;100.00;100052.59;5071968;28;20230;-75
2023/06/19 04:09:55;;;;;;;1.40;1.30;;;;;;;24.26;100.00;100054.75;5071662;28;20595;-77
2023/06/19 04:12:22;;;;;;;0.65;0.65;;;;;;;24.21;100.00;100052.28;5071818;28;20665;-76
2023/06/19 04:14:50;;;;;;;0.70;0.70;;;;;;;24.35;100.00;100049.03;5071910;28;20661;-78
2023/06/19 04:17:18;;;;;;;0.70;0.70;;;;;;;24.29;100.00;100050.19;5072323;28;20202;-75
2023/06/19 04:19:45;;;;;;;0.80;0.80;;;;;;;24.80;100.00;100076.25;5072000;28;20616;-75
2023/06/19 04:22:12;;;;;;;0.70;0.70;;;;;;;25.20;100.00;100071.88;5071801;28;20230;-74
2023/06/19 04:24:39;;;;;;;0.70;0.70;;;;;;;26.43;99.46;100085.53;5071648;28;20300;-74
2023/06/19 04:27:08;;;;;;;0.80;0.80;;;;;;;27.61;87.58;100103.31;5071272;28;20218;-74
2023/06/19 04:29:35;;;;;;;1.00;0.77;;;;;;;28.45;82.29;100094.94;5071613;28;20206;-74
2023/06/19 04:32:10;;;;;;;0.60;0.60;;;;;;;29.15;77.61;100100.56;5071654;28;20721;-74
2023/06/19 04:34:38;;;;;;;0.50;0.50;;;;;;;28.91;77.29;100081.56;5071769;28;20282;-77
2023/06/19 04:37:05;;;;;;;0.63;0.63;;;;;;;28.97;77.66;100103.41;5073242;28;20218;-79
2023/06/19 04:39:32;;;;;;;0.60;0.60;;;;;;;29.00;74.19;100092.53;5068017;28;20195;-75
2023/06/19 04:41:59;;;;;;;0.73;0.73;;;;;;;29.79;70.94;100111.66;5071552;28;20222;-74
2023/06/19 04:44:26;;;;;;;0.60;0.60;;;;;;;29.98;65.26;100106.91;5071693;28;20299;-75
2023/06/19 04:47:00;;;;;;;1.08;1.08;;;;;;;30.38;64.00;100102.50;5071150;28;20211;-74
2023/06/19 04:49:30;;;;;;;0.52;0.52;;;;;;;31.02;61.86;100108.03;5071132;28;20197;-74
2023/06/19 04:51:57;;;;;;;0.60;0.60;;;;;;;31.17;56.64;100107.84;5051824;28;20261;-74
2023/06/19 04:54:24;;;;;;;0.60;0.60;;;;;;;31.16;57.67;100107.94;5067868;28;20638;-74
2023/06/19 04:56:51;;;;;;;0.50;0.50;;;;;;;31.20;56.90;100104.94;5071139;28;20755;-74
2023/06/19 04:59:18;;;;;;;0.52;0.52;;;;;;;31.92;54.65;100109.63;5070600;28;20285;-73
2023/06/19 05:01:46;;;;;;;0.50;0.50;;;;;;;32.27;53.24;100100.81;5067886;28;20246;-74
2023/06/19 05:04:12;;;;;;;0.60;0.60;;;;;;;32.41;52.83;100096.13;5063977;28;20229;-73
2023/06/19 05:06:42;;;;;;;0.63;0.63;;;;;;;33.31;52.42;100121.50;5069528;28;20224;-75
2023/06/19 05:09:09;;;;;;;0.80;0.80;;;;;;;33.30;49.95;100122.47;5035290;28;20582;-74
2023/06/19 05:11:36;;;;;;;0.55;0.55;;;;;;;33.76;49.21;100120.56;5040593;28;20208;-74
2023/06/19 05:14:03;;;;;;;0.82;0.82;;;;;;;34.31;47.65;100108.88;5070858;28;20619;-74
2023/06/19 05:16:29;;;;;;;0.75;0.75;;;;;;;34.23;47.37;100118.56;5071563;28;20746;-75
2023/06/19 05:18:56;;;;;;;2.08;1.05;;;;;;;34.09;46.34;100118.81;5041582;28;20630;-75
2023/06/19 05:21:23;;;;;;;0.60;0.60;;;;;;;33.45;47.73;100125.78;5071502;28;20190;-75
2023/06/19 05:23:52;;;;;;;0.50;0.50;;;;;;;33.37;48.12;100111.13;5071389;28;20241;-74
2023/06/19 05:26:20;;;;;;;0.55;0.55;;;;;;;33.29;49.48;100123.44;5071207;28;20202;-74
2023/06/19 05:28:47;;;;;;;0.70;0.70;;;;;;;32.68;49.42;100117.38;5071211;28;20206;-73
2023/06/19 05:31:13;;;;;;;0.90;0.90;;;;;;;32.95;49.69;100113.56;5070776;28;20621;-75
2023/06/19 05:33:41;;;;;;;0.60;0.60;;;;;;;33.05;49.48;100119.94;5071315;28;20199;-77
2023/06/19 05:36:08;;;;;;;0.60;0.60;;;;;;;33.10;48.81;100118.63;5058421;28;20615;-73
2023/06/19 05:38:35;;;;;;;0.50;0.50;;;;;;;32.78;48.71;100102.31;5071148;28;20194;-74
2023/06/19 05:41:03;;;;;;;0.50;0.50;;;;;;;32.79;49.08;100108.50;5071955;28;20210;-72
2023/06/19 05:43:30;;;;;;;1.00;1.00;;;;;;;32.61;49.11;100100.03;5070550;28;20681;-71
2023/06/19 05:45:59;;;;;;;0.73;0.73;;;;;;;32.55;50.19;100099.59;5070841;28;20257;-73
2023/06/19 05:48:25;;;;;;;0.50;0.50;;;;;;;32.69;49.20;100103.00;5070615;28;20210;-73
2023/06/19 05:50:52;;;;;;;0.70;0.70;;;;;;;32.32;50.80;100093.28;5070924;28;20206;-73
2023/06/19 05:53:19;;;;;;;0.60;0.60;;;;;;;32.74;50.13;100100.81;5070474;28;20259;-72
2023/06/19 05:55:46;;;;;;;0.50;0.50;;;;;;;32.90;50.36;100111.22;5070491;28;20198;-72
2023/06/19 05:58:14;;;;;;;0.70;0.70;;;;;;;33.10;50.91;100109.72;5035449;28;20216;-73
2023/06/19 06:00:41;;;;;;;0.63;0.63;;;;;;;32.23;50.88;100110.06;5070574;28;20210;-73
2023/06/19 06:03:08;;;;;;;0.77;0.77;;;;;;;32.08;51.41;100108.50;5070569;28;20226;-74
2023/06/19 06:05:36;;;;;;;0.70;0.70;;;;;;;32.16;52.75;100106.13;5070443;28;20233;-74
2023/06/19 06:08:03;;;;;;;0.60;0.60;;;;;;;30.97;54.86;100106.53;5052158;28;20202;-74
2023/06/19 06:10:30;;;;;;;0.60;0.60;;;;;;;30.55;57.30;100106.75;5071077;28;20260;-74
2023/06/19 06:12:57;;;;;;;0.50;0.50;;;;;;;30.15;60.77;100104.94;5074299;28;20673;-75
2023/06/19 06:15:25;;;;;;;0.60;0.60;;;;;;;29.98;62.08;100082.84;5074161;28;20673;-76
2023/06/19 06:17:52;;;;;;;0.55;0.55;;;;;;;30.47;60.62;100080.47;5074364;28;20248;-75
2023/06/19 06:20:18;;;;;;;0.68;0.68;;;;;;;29.54;63.41;100111.50;5074097;28;20202;-75
2023/06/19 06:22:45;;;;;;;0.70;0.70;;;;;;;29.52;66.43;100111.63;5074095;28;20202;-75
2023/06/19 06:25:12;;;;;;;0.70;0.70;;;;;;;29.74;65.71;100116.47;5073901;28;20312;-75
2023/06/19 06:27:39;;;;;;;0.80;0.80;;;;;;;29.86;66.70;100115.69;5074179;28;20206;-74
2023/06/19 06:30:07;;;;;;;0.68;0.68;;;;;;;29.72;66.34;100117.50;5073969;28;20222;-75
2023/06/19 06:32:35;;;;;;;0.60;0.60;;;;;;;29.15;72.27;100120.13;5074202;28;20195;-75
2023/06/19 06:35:02;;;;;;;0.63;0.63;;;;;;;28.91;71.61;100095.78;5073836;28;20195;-75
2023/06/19 06:37:29;;;;;;;0.60;0.60;;;;;;;28.80;70.51;100095.56;5073791;28;20199;-75
2023/06/19 06:39:55;;;;;;;0.60;0.60;;;;;;;28.95;70.98;100101.81;5073643;28;20198;-75
2023/06/19 06:42:23;;;;;;;0.60;0.60;;;;;;;29.08;70.96;100112.59;5074158;28;20198;-75
2023/06/19 06:44:49;;;;;;;0.60;0.60;;;;;;;28.15;78.35;100098.50;5073971;28;20304;-76
2023/06/19 06:47:16;;;;;;;1.20;1.20;;;;;;;28.11;76.94;100113.00;5073705;28;20674;-75
2023/06/19 06:49:44;;;;;;;0.70;0.70;;;;;;;27.65;79.81;100118.16;5073720;28;20224;-75
2023/06/19 06:52:11;;;;;;;0.70;0.70;;;;;;;27.27;84.14;100116.66;5073889;28;20191;-76
2023/06/19 06:54:38;;;;;;;0.60;0.60;;;;;;;27.39;84.29;100106.22;5055278;28;20198;-76
2023/06/19 06:57:05;;;;;;;1.45;1.35;;;;;;;27.25;84.25;100107.91;5073544;28;20211;-76
2023/06/19 06:59:32;;;;;;;2.17;1.17;;;;;;;27.44;85.24;100112.16;5073706;28;20203;-76
2023/06/19 07:01:59;;;;;;;0.70;0.70;;;;;;;27.40;85.54;100113.25;5073366;28;20199;-75
2023/06/19 07:04:25;;;;;;;0.60;0.60;;;;;;;27.62;85.41;100110.34;5073386;28;20227;-75
2023/06/19 07:06:54;;;;;;;0.70;0.70;;;;;;;27.92;83.57;100121.13;5073172;28;20549;-75
2023/06/19 07:09:22;;;;;;;0.70;0.70;;;;;;;27.91;84.31;100114.91;5073723;28;20256;-76
2023/06/19 07:11:49;;;;;;;0.80;0.80;;;;;;;27.90;84.25;100120.31;5073281;28;20653;-75
2023/06/19 07:14:17;;;;;;;0.85;0.85;;;;;;;27.66;86.31;100101.22;5072970;28;20638;-76
2023/06/19 07:16:44;;;;;;;0.80;0.80;;;;;;;27.67;91.10;100116.28;5073098;28;20207;-75
2023/06/19 07:19:11;;;;;;;0.65;0.65;;;;;;;27.99;94.55;100119.81;5037985;28;20203;-75
2023/06/19 07:21:39;;;;;;;0.70;0.70;;;;;;;28.02;83.30;100123.19;5072870;28;20207;-75
2023/06/19 07:24:08;;;;;;;0.60;0.60;;;;;;;28.41;82.01;100109.41;5073028;28;20260;-74
2023/06/19 07:26:35;;;;;;;0.65;0.65;;;;;;;28.19;82.89;100129.38;5073227;28;20567;-75
2023/06/19 07:29:01;;;;;;;0.52;0.52;;;;;;;28.40;82.57;100129.03;5037781;28;20198;-75
2023/06/19 07:31:28;;;;;;;0.70;0.70;;;;;;;28.50;79.77;100129.38;5073141;28;20272;-75
2023/06/19 07:33:55;;;;;;;0.90;0.90;;;;;;;28.41;77.48;100129.88;5072577;28;20199;-74
2023/06/19 07:36:21;;;;;;;0.70;0.70;;;;;;;28.20;80.63;100137.31;5072800;28;20272;-73
2023/06/19 07:38:48;;;;;;;0.70;0.70;;;;;;;28.22;79.89;100142.56;5072543;28;20203;-74
2023/06/19 07:41:16;;;;;;;0.93;0.93;;;;;;;28.55;79.67;100137.97;5072636;28;20232;-75
2023/06/19 07:43:43;;;;;;;0.70;0.70;;;;;;;28.45;78.43;100129.63;5072636;28;20645;-74
2023/06/19 07:46:10;;;;;;;0.70;0.70;;;;;;;28.65;78.17;100143.59;5072301;28;20708;-74
2023/06/19 07:48:37;;;;;;;2.22;2.05;;;;;;;28.40;76.58;100144.16;5072304;28;20624;-75
2023/06/19 07:51:04;;;;;;;0.70;0.70;;;;;;;28.85;79.32;100138.00;5072414;28;20256;-74
2023/06/19 07:53:31;;;;;;;0.60;0.60;;;;;;;28.81;76.27;100129.31;5072649;28;20264;-75
2023/06/19 07:55:57;;;;;;;0.70;0.70;;;;;;;29.03;75.13;100139.59;5072299;28;20211;-76
2023/06/19 07:58:25;;;;;;;0.70;0.70;;;;;;;28.83;78.09;100143.44;5072267;28;20199;-75
2023/06/19 08:00:52;;;;;;;0.70;0.70;;;;;;;29.19;77.50;100126.16;5037091;28;20199;-75
2023/06/19 08:03:19;;;;;;;0.57;0.57;;;;;;;29.07;74.84;100134.91;5037358;28;20198;-75
2023/06/19 08:05:46;;;;;;;0.70;0.70;;;;;;;29.01;74.74;100145.00;5072020;28;20759;-74
2023/06/19 08:08:13;;;;;;;0.60;0.60;;;;;;;28.74;77.81;100143.97;5071962;28;20207;-74
2023/06/19 08:10:41;;;;;;;0.80;0.80;;;;;;;29.54;79.34;100151.59;5072259;28;20280;-74
2023/06/19 08:13:07;;;;;;;0.70;0.70;;;;;;;30.30;70.32;100142.25;5072087;28;20294;-73
2023/06/19 08:15:36;;;;;;;0.70;0.70;;;;;;;30.07;70.39;100144.72;5071677;28;20195;-74
2023/06/19 08:18:02;;;;;;;0.60;0.60;;;;;;;30.40;69.71;100147.88;5036932;28;20293;-74
2023/06/19 08:20:29;;;;;;;0.75;0.75;;;;;;;30.47;68.48;100146.53;5072119;28;20202;-75
2023/06/19 08:22:57;;;;;;;0.60;0.60;;;;;;;30.08;69.23;100141.06;5071696;28;20674;-77
2023/06/19 08:25:23;;;;;;;0.57;0.57;;;;;;;29.73;70.45;100148.63;5071734;28;20313;-75
2023/06/19 08:27:50;;;;;;;0.85;0.85;;;;;;;29.41;72.22;100148.84;5071600;28;20252;-73
2023/06/19 08:30:17;;;;;;;0.85;0.85;;;;;;;29.17;74.89;100146.75;5071759;28;20230;-74
2023/06/19 08:32:48;;;;;;;0.60;0.60;;;;;;;29.63;74.36;100148.38;5071384;28;20588;-73
2023/06/19 08:35:15;;;;;;;0.70;0.70;;;;;;;29.63;71.88;100150.16;5069409;28;20195;-75
2023/06/19 08:37:41;;;;;;;0.70;0.70;;;;;;;29.39;73.42;100148.09;5071596;28;20199;-72
2023/06/19 08:40:10;;;;;;;1.08;1.08;;;;;;;29.46;74.52;100143.22;5057373;28;20210;-73
2023/06/19 08:42:36;;;;;;;0.77;0.77;;;;;;;29.28;75.21;100157.69;5071282;28;20233;-72
2023/06/19 08:45:03;;;;;;;0.80;0.80;;;;;;;29.08;77.51;100153.50;5052549;28;20226;-73
2023/06/19 08:47:31;;;;;;;0.57;0.57;;;;;;;28.99;74.21;100156.75;5070336;28;20206;-72
2023/06/19 08:50:00;;;;;;;0.60;0.60;;;;;;;29.18;76.73;100151.16;5058490;28;20234;-74
2023/06/19 08:52:27;;;;;;;0.70;0.70;;;;;;;29.41;77.45;100159.53;5057777;28;20211;-74
2023/06/19 08:54:53;;;;;;;0.60;0.60;;;;;;;29.15;77.19;100154.00;5070508;28;20214;-74
2023/06/19 08:57:20;;;;;;;0.70;0.70;;;;;;;29.27;78.01;100154.16;5071589;28;20268;-75
2023/06/19 08:59:49;;;;;;;1.10;0.80;;;;;;;29.59;75.91;100148.63;5031882;28;20203;-72
2023/06/19 09:02:16;;;;;;;0.70;0.70;;;;;;;28.93;76.91;100139.25;5061485;28;20237;-73
2023/06/19 09:04:43;;;;;;;1.27;1.00;;;;;;;28.92;78.02;100115.34;5056994;28;20241;-73
2023/06/19 09:07:14;;;;;;;0.80;0.80;;;;;;;29.25;79.08;100144.50;5062584;28;20202;-73
2023/06/19 09:09:46;;;;;;;0.88;0.85;;;;;;;28.99;79.33;100146.94;5065898;28;20662;-75
2023/06/19 09:12:15;;;;;;;0.60;0.60;;;;;;;28.26;83.38;100142.28;5071260;28;20230;-75
2023/06/19 09:14:43;;;;;;;0.80;0.80;;;;;;;28.64;82.66;100142.78;5057024;28;20207;-74
2023/06/19 09:17:14;;;;;;;0.90;0.90;;;;;;;28.45;82.71;100142.97;5057355;28;20202;-75
2023/06/19 09:19:48;;;;;;;0.80;0.80;;;;;;;28.11;84.21;100113.81;5052712;28;20633;-74
2023/06/19 09:22:19;;;;;;;0.60;0.60;;;;;;;28.24;88.83;100149.53;5070774;28;20265;-75
2023/06/19 09:24:46;;;;;;;1.13;1.02;;;;;;;27.44;86.14;100144.13;5070833;28;20206;-76
2023/06/19 09:27:14;;;;;;;1.60;1.50;;;;;;;28.13;85.64;100140.41;5057119;28;20202;-74
2023/06/19 09:29:42;;;;;;;0.80;0.80;;;;;;;28.03;82.52;100146.25;5070809;28;20207;-72
2023/06/19 09:32:16;;;;;;;0.70;0.70;;;;;;;27.60;82.22;100053.63;5071275;28;20195;-73
2023/06/19 09:34:43;;;;;;;0.85;0.85;;;;;;;28.49;83.62;100141.00;5070766;28;20680;-75
2023/06/19 09:37:10;;;;;;;0.70;0.70;;;;;;;28.62;77.48;100123.31;5070944;28;20199;-74
2023/06/19 09:39:39;;;;;;;1.20;1.00;;;;;;;29.08;77.96;100142.81;5070812;28;20214;-76
2023/06/19 09:42:08;;;;;;;0.80;0.80;;;;;;;29.51;76.27;100149.13;5069921;28;20203;-75
2023/06/19 09:44:40;;;;;;;0.70;0.70;;;;;;;29.48;73.15;100127.94;5059509;28;20214;-76
2023/06/19 09:47:18;;;;;;;0.70;0.70;;;;;;;29.44;70.25;100142.44;5074860;28;20230;-75
2023/06/19 09:49:50;;;;;;;0.82;0.80;;;;;;;29.61;71.02;100147.59;5062276;28;20224;-75
2023/06/19 09:52:19;;;;;;;0.60;0.60;;;;;;;29.20;73.61;100133.22;5060165;28;20240;-75
2023/06/19 09:54:47;;;;;;;1.00;0.98;;;;;;;28.94;75.02;100134.78;5067779;28;20208;-75
2023/06/19 09:57:14;;;;;;;0.50;0.50;;;;;;;28.87;73.18;100128.94;5067967;28;20699;-79
2023/06/19 09:59:43;;;;;;;0.80;0.80;;;;;;;29.05;73.52;100138.53;5075185;28;20231;-78
2023/06/19 10:02:11;;;;;;;0.65;0.65;;;;;;;28.94;71.47;100124.97;5056351;28;20637;-79
2023/06/19 10:04:49;;;;;;;0.80;0.80;;;;;;;28.96;71.30;100109.72;5057635;28;20574;-78
2023/06/19 10:07:17;;;;;;;0.65;0.65;;;;;;;28.95;72.20;100124.03;5068825;28;20231;-77
2023/06/19 10:09:58;;;;;;;0.88;0.85;;;;;;;29.12;64.80;100123.00;5076911;28;20249;-79
2023/06/19 10:12:35;;;;;;;0.70;0.70;;;;;;;29.08;65.67;100120.59;5064727;28;20690;-79
2023/06/19 10:15:10;;;;;;;0.65;0.65;;;;;;;29.10;66.20;100108.03;5075732;28;20198;-78
2023/06/19 10:17:37;;;;;;;0.70;0.70;;;;;;;28.99;70.57;100120.22;5052595;28;20298;-78
2023/06/19 10:20:11;;;;;;;0.70;0.70;;;;;;;29.14;63.91;100121.09;5059128;28;20199;-74
2023/06/19 10:22:38;;;;;;;0.65;0.65;;;;;;;28.84;63.42;100051.72;5073720;28;20242;-75
2023/06/19 10:25:06;;;;;;;0.70;0.70;;;;;;;29.28;65.36;100093.56;5073763;28;20653;-76
2023/06/19 10:27:38;;;;;;;0.68;0.68;;;;;;;29.26;66.57;100100.78;5073928;28;20203;-76
2023/06/19 10:30:05;;;;;;;0.70;0.70;;;;;;;29.53;67.64;100099.13;5073860;28;20237;-76
2023/06/19 10:32:32;;;;;;;0.85;0.85;;;;;;;29.09;65.70;100100.97;5063883;28;20624;-76
2023/06/19 10:34:59;;;;;;;0.70;0.70;;;;;;;29.22;68.81;100099.25;5053701;28;20694;-76
2023/06/19 10:37:33;;;;;;;0.70;0.70;;;;;;;29.47;67.57;100086.13;5053670;28;20203;-76
2023/06/19 10:40:00;;;;;;;0.70;0.70;;;;;;;29.40;68.64;100095.47;5053626;28;20199;-77
2023/06/19 10:42:28;;;;;;;1.20;1.08;;;;;;;29.30;70.08;100072.97;5053656;28;20207;-76
2023/06/19 10:45:00;;;;;;;0.60;0.60;;;;;;;29.72;69.39;100080.06;5053818;28;20269;-77
2023/06/19 10:47:28;;;;;;;0.68;0.68;;;;;;;29.45;65.03;100069.34;5053420;28;20322;-76
2023/06/19 10:49:55;;;;;;;0.85;0.85;;;;;;;29.96;64.12;100068.72;5053756;28;20287;-76
2023/06/19 10:52:22;;;;;;;0.63;0.63;;;;;;;29.61;65.79;100078.09;5053446;28;20210;-76
2023/06/19 10:54:54;;;;;;;0.80;0.80;;;;;;;29.79;66.60;100055.53;5053560;28;20677;-76
2023/06/19 10:57:29;;;;;;;0.60;0.60;;;;;;;30.20;66.53;100073.41;5052487;28;20294;-76
2023/06/19 10:59:56;;;;;;;0.50;0.50;;;;;;;30.12;64.24;100073.03;5053536;28;20677;-76
2023/06/19 11:02:23;;;;;;;0.60;0.60;;;;;;;30.47;63.97;100074.28;5053233;28;20202;-76
2023/06/19 11:04:53;;;;;;;1.15;1.05;;;;;;;31.06;63.92;100077.41;5053272;28;20253;-76
2023/06/19 11:07:20;;;;;;;0.60;0.60;;;;;;;30.71;64.25;100050.34;5035005;28;20323;-76
2023/06/19 11:09:47;;;;;;;1.27;1.15;;;;;;;30.83;66.80;100063.75;5053569;28;20195;-75
2023/06/19 11:12:20;;;;;;;0.60;0.60;;;;;;;31.14;63.68;100061.66;5056840;28;20207;-76
2023/06/19 11:14:48;;;;;;;0.73;0.73;;;;;;;31.18;63.92;100061.31;5071463;28;20263;-76
2023/06/19 11:17:15;;;;;;;0.60;0.60;;;;;;;31.64;62.89;100068.81;5073821;28;20225;-76
2023/06/19 11:19:44;;;;;;;1.30;1.20;;;;;;;31.27;61.99;100044.59;5066826;28;20195;-75
2023/06/19 11:22:11;;;;;;;1.10;1.05;;;;;;;31.16;63.36;100027.56;5066438;28;20216;-75
2023/06/19 11:24:38;;;;;;;0.82;0.80;;;;;;;31.75;61.19;100050.94;5069733;28;20211;-76
2023/06/19 11:27:05;;;;;;;0.60;0.60;;;;;;;31.51;58.85;100031.25;5071692;28;20222;-75